Time;durP1;ratioP1;P1;durP2;ratioP2;P2;SDS_P1;SDS_P2;PMS_P1;PMS_P2;Temp;Humidity;BMP_temperature;BMP_pressure;BME280_temperature;BME280_humidity;BME280_pressure;Samples;Min_cycle;Max_cycle;Signal;HPM_P1;HPM_P2
2021/05/29 00:00:56;;;;;;;6.63;5.03;;;9.40;99.90;;;;;;5065266;28;20079;-57
2021/05/29 00:03:24;;;;;;;8.80;5.18;;;9.30;99.90;;;;;;5067738;28;20024;-57
2021/05/29 00:05:50;;;;;;;8.27;5.47;;;9.20;99.90;;;;;;5069506;28;20078;-59
2021/05/29 00:08:16;;;;;;;7.57;5.65;;;9.20;99.90;;;;;;5070638;28;20073;-59
2021/05/29 00:10:45;;;;;;;8.32;5.78;;;9.20;99.90;;;;;;5067482;28;20096;-58
2021/05/29 00:13:11;;;;;;;10.90;5.75;;;9.20;99.90;;;;;;5065495;28;20154;-58
2021/05/29 00:15:38;;;;;;;8.65;6.30;;;9.10;99.90;;;;;;5066957;28;20070;-58
2021/05/29 00:18:04;;;;;;;8.23;5.25;;;9.10;99.90;;;;;;5061620;28;20498;-58
2021/05/29 00:20:30;;;;;;;9.80;5.72;;;9.10;99.90;;;;;;5069980;28;20067;-57
2021/05/29 00:22:56;;;;;;;7.72;5.57;;;9.10;99.90;;;;;;5069075;28;20056;-58
2021/05/29 00:25:21;;;;;;;10.52;5.82;;;9.00;99.90;;;;;;5062461;28;20562;-58
2021/05/29 00:27:47;;;;;;;8.93;5.97;;;9.00;99.90;;;;;;5069513;28;20089;-60
2021/05/29 00:30:13;;;;;;;7.00;5.85;;;9.00;99.90;;;;;;5070308;28;20032;-58
2021/05/29 00:32:39;;;;;;;8.77;5.68;;;8.90;99.90;;;;;;5069495;28;20040;-58
2021/05/29 00:35:06;;;;;;;8.68;6.53;;;8.90;99.90;;;;;;5070960;28;20028;-58
2021/05/29 00:37:32;;;;;;;13.13;6.65;;;8.90;99.90;;;;;;5063263;28;20040;-57
2021/05/29 00:39:57;;;;;;;7.70;5.75;;;9.00;99.90;;;;;;5065393;28;20077;-57
2021/05/29 00:42:23;;;;;;;11.30;5.65;;;9.00;99.90;;;;;;5066840;28;20062;-58
2021/05/29 00:44:51;;;;;;;8.73;5.68;;;9.00;99.90;;;;;;5071932;28;20043;-58
2021/05/29 00:47:24;;;;;;;11.35;6.00;;;9.00;99.90;;;;;;5073693;28;20036;-57
2021/05/29 00:49:51;;;;;;;9.40;5.63;;;8.90;99.90;;;;;;5073721;28;20166;-57
2021/05/29 00:52:18;;;;;;;8.60;6.00;;;8.90;99.90;;;;;;5068573;28;20268;-55
2021/05/29 00:54:45;;;;;;;13.82;6.53;;;8.80;99.90;;;;;;5073545;28;20099;-58
2021/05/29 00:57:11;;;;;;;11.70;6.68;;;8.70;99.90;;;;;;5059038;28;20052;-58
2021/05/29 00:59:37;;;;;;;12.57;6.40;;;8.70;99.90;;;;;;5070473;28;20032;-59
2021/05/29 01:02:04;;;;;;;8.93;6.25;;;8.80;99.90;;;;;;5070785;28;20398;-58
2021/05/29 01:04:30;;;;;;;10.00;6.15;;;8.70;99.90;;;;;;5072661;28;20070;-57
2021/05/29 01:06:56;;;;;;;9.70;7.32;;;8.70;99.90;;;;;;5060420;28;20024;-57
2021/05/29 01:09:24;;;;;;;9.75;6.85;;;8.60;99.90;;;;;;5073445;28;20060;-58
2021/05/29 01:11:50;;;;;;;10.32;6.45;;;8.50;99.90;;;;;;5060815;28;20028;-58
2021/05/29 01:14:16;;;;;;;10.80;6.82;;;8.50;99.90;;;;;;5054433;28;20513;-58
2021/05/29 01:16:53;;;;;;;9.35;6.53;;;8.40;99.90;;;;;;5070254;28;20033;-57
2021/05/29 01:19:20;;;;;;;12.30;7.88;;;8.40;99.90;;;;;;5071409;28;20099;-58
2021/05/29 01:21:46;;;;;;;12.43;7.40;;;8.40;99.90;;;;;;5072603;28;20078;-58
2021/05/29 01:24:11;;;;;;;11.43;7.22;;;8.40;99.90;;;;;;5072599;28;20029;-58
2021/05/29 01:26:37;;;;;;;14.23;7.78;;;8.30;99.90;;;;;;5072940;28;20055;-57
2021/05/29 01:29:02;;;;;;;9.93;7.57;;;8.30;99.90;;;;;;5072610;28;20036;-58
2021/05/29 01:31:31;;;;;;;8.98;7.20;;;8.30;99.90;;;;;;5071679;28;20046;-58
2021/05/29 01:33:58;;;;;;;21.08;6.55;;;8.30;99.90;;;;;;5067640;28;20021;-58
2021/05/29 01:36:25;;;;;;;10.77;6.90;;;8.30;99.90;;;;;;5070029;28;20024;-58
2021/05/29 01:38:51;;;;;;;15.77;7.03;;;8.30;99.90;;;;;;5071297;28;20041;-58
2021/05/29 01:41:20;;;;;;;9.70;7.45;;;8.30;99.90;;;;;;5070986;28;20021;-59
2021/05/29 01:43:51;;;;;;;14.02;8.38;;;8.20;99.90;;;;;;5069966;28;20327;-58
2021/05/29 01:46:18;;;;;;;11.00;7.07;;;8.20;99.90;;;;;;5071551;28;20030;-58
2021/05/29 01:48:46;;;;;;;10.30;7.47;;;8.20;99.90;;;;;;5072980;28;20025;-59
2021/05/29 01:51:13;;;;;;;18.90;7.80;;;8.10;99.90;;;;;;5065071;28;20398;-57
2021/05/29 01:53:39;;;;;;;12.48;7.28;;;8.10;99.90;;;;;;5069876;28;20070;-57
2021/05/29 01:56:05;;;;;;;10.13;7.00;;;8.10;99.90;;;;;;5072695;28;20029;-58
2021/05/29 01:58:31;;;;;;;10.18;7.63;;;8.00;99.90;;;;;;5071835;28;20028;-61
2021/05/29 02:00:57;;;;;;;10.88;7.90;;;8.00;99.90;;;;;;5067412;28;20477;-58
2021/05/29 02:03:23;;;;;;;10.10;6.70;;;8.00;99.90;;;;;;5070590;28;20494;-58
2021/05/29 02:05:49;;;;;;;10.32;7.32;;;7.90;99.90;;;;;;5069163;28;20044;-57
2021/05/29 02:08:15;;;;;;;12.32;7.15;;;7.90;99.90;;;;;;5062694;28;20111;-58
2021/05/29 02:10:43;;;;;;;12.45;6.72;;;7.90;99.90;;;;;;5070488;28;20041;-58
2021/05/29 02:13:21;;;;;;;9.77;6.68;;;8.00;99.90;;;;;;5065064;28;20056;-56
2021/05/29 02:15:46;;;;;;;9.10;6.30;;;8.00;99.90;;;;;;5067302;28;20058;-57
2021/05/29 02:18:12;;;;;;;13.00;6.40;;;8.10;99.90;;;;;;5069884;28;20498;-57
2021/05/29 02:20:41;;;;;;;10.02;7.03;;;8.10;99.90;;;;;;5071872;28;20024;-55
2021/05/29 02:23:07;;;;;;;9.43;7.25;;;8.00;99.90;;;;;;5072189;28;20032;-60
2021/05/29 02:25:33;;;;;;;12.55;7.85;;;7.90;99.90;;;;;;5071141;28;20017;-57
2021/05/29 02:27:59;;;;;;;11.43;6.63;;;8.00;99.90;;;;;;5067393;28;20477;-58
2021/05/29 02:30:25;;;;;;;16.13;7.10;;;8.10;99.90;;;;;;5061908;28;20514;-59
2021/05/29 02:32:51;;;;;;;12.02;7.07;;;8.00;99.90;;;;;;5070046;28;20111;-59
2021/05/29 02:35:17;;;;;;;10.40;7.07;;;7.90;99.90;;;;;;5069871;28;20112;-58
2021/05/29 02:37:43;;;;;;;11.27;7.55;;;7.80;99.90;;;;;;5064997;28;20052;-57
2021/05/29 02:40:09;;;;;;;14.00;7.97;;;7.80;99.90;;;;;;5061216;28;20028;-57
2021/05/29 02:42:35;;;;;;;20.27;9.40;;;7.80;99.90;;;;;;5051347;28;20513;-55
2021/05/29 02:45:00;;;;;;;11.43;8.55;;;7.70;99.90;;;;;;5070072;28;20052;-55
2021/05/29 02:47:26;;;;;;;15.85;10.00;;;7.70;99.90;;;;;;5071142;28;20032;-58
2021/05/29 02:49:52;;;;;;;13.55;9.25;;;7.70;99.90;;;;;;5071492;28;20123;-56
2021/05/29 02:52:17;;;;;;;15.05;8.77;;;7.60;99.90;;;;;;5069685;28;20020;-58
2021/05/29 02:54:43;;;;;;;13.13;8.45;;;7.70;99.90;;;;;;5049930;28;20036;-56
2021/05/29 02:57:12;;;;;;;14.20;8.15;;;7.70;99.90;;;;;;5071637;28;20029;-55
2021/05/29 02:59:39;;;;;;;13.63;7.75;;;7.80;99.90;;;;;;5071124;28;20070;-55
2021/05/29 03:02:06;;;;;;;14.68;7.47;;;7.80;99.90;;;;;;5070638;28;20104;-60
2021/05/29 03:04:32;;;;;;;13.27;8.10;;;7.90;99.90;;;;;;5067150;28;20120;-57
2021/05/29 03:06:58;;;;;;;14.85;8.07;;;7.80;99.90;;;;;;5070362;28;20111;-57
2021/05/29 03:09:23;;;;;;;34.88;9.38;;;7.70;99.90;;;;;;5051639;28;20017;-58
2021/05/29 03:11:49;;;;;;;11.00;8.32;;;7.70;99.90;;;;;;5068462;28;20393;-58
2021/05/29 03:14:14;;;;;;;12.60;7.68;;;7.60;99.90;;;;;;5071018;28;20021;-58
2021/05/29 03:16:40;;;;;;;13.23;8.65;;;7.60;99.90;;;;;;5064713;28;20021;-55
2021/05/29 03:19:06;;;;;;;16.70;8.90;;;7.60;99.90;;;;;;5049453;28;20048;-55
2021/05/29 03:21:31;;;;;;;14.27;9.32;;;7.50;99.90;;;;;;5070021;28;20044;-57
2021/05/29 03:23:57;;;;;;;13.57;8.93;;;7.50;99.90;;;;;;5070102;28;20029;-61
2021/05/29 03:26:24;;;;;;;12.75;8.20;;;7.50;99.90;;;;;;5064015;28;20032;-57
2021/05/29 03:28:50;;;;;;;19.88;8.65;;;7.40;99.90;;;;;;5085660;22;20083;-58
2021/05/29 03:31:16;;;;;;;11.48;8.10;;;7.40;99.90;;;;;;5055011;28;20161;-61
2021/05/29 03:33:42;;;;;;;14.25;8.93;;;7.30;99.90;;;;;;5078483;28;20103;-61
2021/05/29 03:36:07;;;;;;;15.52;9.10;;;7.30;99.90;;;;;;5075067;28;20028;-59
2021/05/29 03:38:33;;;;;;;12.95;8.32;;;7.30;99.90;;;;;;5073238;28;20511;-58
2021/05/29 03:40:58;;;;;;;16.50;9.95;;;7.40;99.90;;;;;;5067861;28;20024;-59
2021/05/29 03:43:24;;;;;;;17.77;10.10;;;7.30;99.90;;;;;;5076311;28;20032;-60
2021/05/29 03:45:49;;;;;;;17.45;9.00;;;7.30;99.90;;;;;;5078358;28;20039;-59
2021/05/29 03:48:15;;;;;;;15.85;8.30;;;7.30;99.90;;;;;;5073542;28;20028;-61
2021/05/29 03:50:41;;;;;;;14.20;9.38;;;7.30;99.90;;;;;;5079332;28;20032;-61
2021/05/29 03:53:07;;;;;;;15.40;9.32;;;7.30;99.90;;;;;;5081755;28;20028;-60
2021/05/29 03:55:33;;;;;;;13.00;8.77;;;7.30;99.90;;;;;;5080206;28;20107;-60
2021/05/29 03:57:59;;;;;;;20.02;10.63;;;7.30;99.90;;;;;;5085944;28;20097;-60
2021/05/29 04:00:25;;;;;;;13.88;9.65;;;7.30;99.90;;;;;;5077936;28;20035;-60
2021/05/29 04:02:51;;;;;;;17.88;9.75;;;7.30;99.90;;;;;;5078211;28;20040;-59
2021/05/29 04:05:18;;;;;;;16.13;9.73;;;7.30;99.90;;;;;;5081452;28;20032;-58
2021/05/29 04:07:44;;;;;;;15.13;9.98;;;7.40;99.90;;;;;;5066223;28;20028;-58
2021/05/29 04:10:13;;;;;;;18.95;9.82;;;7.40;99.90;;;;;;5070010;28;20025;-61
2021/05/29 04:12:39;;;;;;;16.40;8.98;;;7.50;99.90;;;;;;5071009;28;20389;-61
2021/05/29 04:15:07;;;;;;;15.13;9.32;;;7.40;99.90;;;;;;5075068;28;20469;-60
2021/05/29 04:17:32;;;;;;;14.73;10.02;;;7.50;99.90;;;;;;5082638;28;20036;-60
2021/05/29 04:19:58;;;;;;;13.38;8.77;;;7.60;99.90;;;;;;5084583;28;20028;-61
2021/05/29 04:22:25;;;;;;;12.93;8.80;;;7.70;99.90;;;;;;5076068;28;20056;-60
2021/05/29 04:24:51;;;;;;;16.55;10.15;;;7.70;99.90;;;;;;5078784;28;20029;-60
2021/05/29 04:27:18;;;;;;;11.68;8.85;;;7.70;99.90;;;;;;5085456;28;20089;-60
2021/05/29 04:29:44;;;;;;;18.63;9.73;;;7.70;99.90;;;;;;5084584;28;20038;-60
2021/05/29 04:32:09;;;;;;;14.70;8.35;;;7.80;99.90;;;;;;5079259;28;20107;-60
2021/05/29 04:34:35;;;;;;;13.70;9.05;;;7.90;99.90;;;;;;5086637;28;20493;-57
2021/05/29 04:37:01;;;;;;;16.08;9.23;;;8.00;99.90;;;;;;5085212;28;20063;-59
2021/05/29 04:39:26;;;;;;;14.48;8.50;;;8.00;99.90;;;;;;5073307;28;20024;-64
2021/05/29 04:41:52;;;;;;;13.23;9.27;;;8.00;99.90;;;;;;5072021;28;20048;-59
2021/05/29 04:44:17;;;;;;;14.43;8.93;;;8.10;99.90;;;;;;5072439;28;20043;-62
2021/05/29 04:46:50;;;;;;;14.38;8.80;;;8.20;99.90;;;;;;5074483;28;20089;-59
2021/05/29 04:49:21;;;;;;;16.60;8.68;;;8.20;99.90;;;;;;5072045;28;20028;-58
2021/05/29 04:51:47;;;;;;;17.10;9.55;;;8.30;99.90;;;;;;5066789;28;20025;-58
2021/05/29 04:54:13;;;;;;;16.00;9.85;;;8.40;99.90;;;;;;5072513;28;20490;-60
2021/05/29 04:56:39;;;;;;;15.07;9.43;;;8.50;99.90;;;;;;5072036;28;20039;-59
2021/05/29 04:59:05;;;;;;;13.93;8.93;;;8.50;99.90;;;;;;5071932;28;20036;-60
2021/05/29 05:01:31;;;;;;;13.38;8.90;;;8.60;99.90;;;;;;5071653;28;20028;-61
2021/05/29 05:04:01;;;;;;;15.23;8.77;;;8.60;99.90;;;;;;5072091;28;20497;-60
2021/05/29 05:06:27;;;;;;;13.77;9.30;;;8.70;99.90;;;;;;5079644;28;20028;-60
2021/05/29 05:08:53;;;;;;;17.88;9.55;;;8.70;99.90;;;;;;5072958;28;20035;-58
2021/05/29 05:11:19;;;;;;;13.35;9.38;;;8.80;99.90;;;;;;5083015;28;20032;-60
2021/05/29 05:13:46;;;;;;;14.23;9.95;;;8.90;99.90;;;;;;5080978;28;20033;-60
2021/05/29 05:16:12;;;;;;;15.57;9.68;;;9.00;99.90;;;;;;5075632;28;20028;-60
2021/05/29 05:18:38;;;;;;;13.90;9.55;;;9.00;99.90;;;;;;5071845;28;20155;-60
2021/05/29 05:21:04;;;;;;;23.88;11.52;;;9.10;99.90;;;;;;5082634;28;20116;-61
2021/05/29 05:23:29;;;;;;;21.15;10.98;;;9.20;99.90;;;;;;5084176;28;20024;-60
2021/05/29 05:25:55;;;;;;;19.23;12.52;;;9.30;99.90;;;;;;5082061;28;20032;-59
2021/05/29 05:28:28;;;;;;;19.70;12.20;;;9.30;99.90;;;;;;5081415;28;20036;-59
2021/05/29 05:31:03;;;;;;;21.17;11.10;;;9.40;99.90;;;;;;5082266;28;20036;-57
2021/05/29 05:33:30;;;;;;;24.05;12.20;;;9.50;99.90;;;;;;5065090;28;20040;-60
2021/05/29 05:35:56;;;;;;;23.83;13.35;;;9.60;99.90;;;;;;5079812;28;20478;-61
2021/05/29 05:38:23;;;;;;;27.23;15.95;;;9.60;99.90;;;;;;5080375;28;20029;-60
2021/05/29 05:40:49;;;;;;;31.48;18.67;;;9.70;99.90;;;;;;5079833;28;20024;-61
2021/05/29 05:43:15;;;;;;;25.63;16.60;;;9.80;99.90;;;;;;5089054;28;20039;-61
2021/05/29 05:45:41;;;;;;;22.25;15.15;;;9.90;99.90;;;;;;5082528;28;20016;-61
2021/05/29 05:48:07;;;;;;;22.98;14.88;;;10.00;99.90;;;;;;5084611;28;20107;-59
2021/05/29 05:50:33;;;;;;;27.90;14.77;;;10.10;99.90;;;;;;5080339;28;20033;-60
2021/05/29 05:52:59;;;;;;;26.25;14.82;;;10.10;99.90;;;;;;5079816;28;20508;-58
2021/05/29 05:55:25;;;;;;;25.05;15.77;;;10.20;99.90;;;;;;5074929;28;20044;-57
2021/05/29 05:57:50;;;;;;;25.40;15.65;;;10.30;99.90;;;;;;5073985;28;20033;-59
2021/05/29 06:00:19;;;;;;;23.40;14.30;;;10.40;99.90;;;;;;5087177;28;20035;-55
2021/05/29 06:02:46;;;;;;;23.25;14.85;;;10.50;99.90;;;;;;5077041;28;20028;-60
2021/05/29 06:05:13;;;;;;;20.48;12.73;;;10.60;99.90;;;;;;5082823;28;20161;-59
2021/05/29 06:07:39;;;;;;;21.33;14.10;;;10.70;99.90;;;;;;5082993;28;20031;-60
2021/05/29 06:10:06;;;;;;;18.65;12.20;;;10.80;99.90;;;;;;5083400;28;20032;-59
2021/05/29 06:12:34;;;;;;;29.00;12.80;;;10.90;99.90;;;;;;5076658;28;20482;-60
2021/05/29 06:18:06;;;;;;;22.63;12.05;;;11.10;99.90;;;;;;5085057;28;20039;-62
2021/05/29 06:20:32;;;;;;;21.23;11.93;;;11.10;99.90;;;;;;5077412;28;20036;-59
2021/05/29 06:22:58;;;;;;;14.95;9.13;;;11.20;99.90;;;;;;5080293;28;20051;-57
2021/05/29 06:25:23;;;;;;;17.90;10.25;;;11.30;99.90;;;;;;5078872;28;20028;-60
2021/05/29 06:27:49;;;;;;;21.42;11.23;;;11.40;99.90;;;;;;5083264;28;20047;-58
2021/05/29 06:30:15;;;;;;;13.15;9.82;;;11.50;99.90;;;;;;5077422;28;20140;-60
2021/05/29 06:32:40;;;;;;;18.45;9.35;;;11.60;99.90;;;;;;5072127;28;20032;-60
2021/05/29 06:35:07;;;;;;;15.15;8.85;;;11.60;99.90;;;;;;5082319;28;20032;-59
2021/05/29 06:37:35;;;;;;;14.82;8.98;;;11.70;99.90;;;;;;5076592;28;20478;-59
2021/05/29 06:40:01;;;;;;;15.38;8.48;;;11.80;99.90;;;;;;5078730;28;20466;-60
2021/05/29 06:42:27;;;;;;;21.23;8.35;;;11.80;99.90;;;;;;5082505;28;20047;-58
2021/05/29 06:44:52;;;;;;;14.50;8.73;;;11.90;99.90;;;;;;5082056;28;20470;-60
2021/05/29 06:47:18;;;;;;;10.20;7.18;;;12.00;99.90;;;;;;5054007;28;20410;-59
2021/05/29 06:49:43;;;;;;;13.38;8.00;;;12.10;99.90;;;;;;5083682;28;20032;-58
2021/05/29 06:52:15;;;;;;;9.75;7.25;;;12.20;99.90;;;;;;5069791;28;20078;-59
2021/05/29 06:59:56;;;;;;;12.07;6.47;;;12.40;99.90;;;;;;5080374;28;20038;-58
2021/05/29 07:02:22;;;;;;;10.10;6.78;;;12.60;99.90;;;;;;5075881;28;20222;-59
2021/05/29 07:04:47;;;;;;;10.38;6.80;;;12.60;99.90;;;;;;5071280;28;20028;-59
2021/05/29 07:07:13;;;;;;;14.65;7.00;;;12.70;99.90;;;;;;5077205;28;20433;-58
2021/05/29 07:09:39;;;;;;;13.07;7.43;;;12.80;99.90;;;;;;5080167;28;20039;-61
2021/05/29 07:12:05;;;;;;;9.73;6.53;;;12.90;99.90;;;;;;5073978;28;20035;-61
2021/05/29 07:14:30;;;;;;;11.95;8.20;;;13.00;99.90;;;;;;5082143;28;20107;-60
2021/05/29 07:16:56;;;;;;;14.02;6.32;;;13.10;99.90;;;;;;5074655;28;20024;-61
2021/05/29 07:19:24;;;;;;;13.52;7.45;;;13.10;99.90;;;;;;5072875;28;20170;-60
2021/05/29 07:21:51;;;;;;;10.70;7.03;;;13.20;99.90;;;;;;5074872;28;20051;-61
2021/05/29 07:24:18;;;;;;;10.68;6.53;;;13.30;99.90;;;;;;5079138;28;20087;-57
2021/05/29 07:26:44;;;;;;;12.43;6.90;;;13.40;99.90;;;;;;5073513;28;20055;-58
2021/05/29 07:29:10;;;;;;;13.02;7.32;;;13.60;99.90;;;;;;5079630;28;20486;-57
2021/05/29 07:31:36;;;;;;;11.57;7.47;;;13.70;99.90;;;;;;5076942;28;20101;-58
2021/05/29 07:34:02;;;;;;;16.77;6.75;;;13.90;99.90;;;;;;5077738;28;20035;-59
2021/05/29 07:36:28;;;;;;;12.82;7.55;;;14.10;99.90;;;;;;5077802;28;20031;-58
2021/05/29 07:38:53;;;;;;;14.45;7.07;;;14.10;99.90;;;;;;5076280;28;20099;-58
2021/05/29 07:41:21;;;;;;;12.95;7.80;;;14.10;99.90;;;;;;5083133;28;20107;-55
2021/05/29 07:43:47;;;;;;;13.73;7.13;;;14.30;99.90;;;;;;5077086;28;20093;-58
2021/05/29 07:46:12;;;;;;;10.15;7.03;;;14.30;99.90;;;;;;5064021;28;20021;-60
2021/05/29 07:48:38;;;;;;;11.95;7.07;;;14.40;99.90;;;;;;5075875;28;20034;-58
2021/05/29 07:51:05;;;;;;;12.23;6.80;;;14.50;99.90;;;;;;5080610;28;20028;-57
2021/05/29 07:53:35;;;;;;;13.30;6.80;;;14.60;99.90;;;;;;5065475;28;20497;-60
2021/05/29 07:56:07;;;;;;;11.13;6.70;;;14.70;99.90;;;;;;5073117;28;20432;-59
2021/05/29 07:58:33;;;;;;;11.57;5.85;;;14.80;99.90;;;;;;5073833;28;20077;-60
2021/05/29 08:00:59;;;;;;;8.90;5.38;;;14.90;99.90;;;;;;5065805;28;20021;-59
2021/05/29 08:03:26;;;;;;;8.95;5.82;;;15.00;99.90;;;;;;5070217;28;20017;-60
2021/05/29 08:05:54;;;;;;;9.30;5.32;;;15.10;99.90;;;;;;5082838;28;20081;-59
2021/05/29 08:08:20;;;;;;;18.27;6.97;;;15.20;99.90;;;;;;5076375;28;20032;-59
2021/05/29 08:10:48;;;;;;;8.43;5.85;;;15.20;99.90;;;;;;5068516;28;20035;-60
2021/05/29 08:13:15;;;;;;;10.35;5.45;;;15.30;99.90;;;;;;5070472;28;20020;-56
2021/05/29 08:15:42;;;;;;;11.13;5.38;;;15.40;99.90;;;;;;5070561;28;20028;-57
2021/05/29 08:18:08;;;;;;;8.50;5.30;;;15.60;99.90;;;;;;5051910;28;20067;-59
2021/05/29 08:20:36;;;;;;;8.60;4.68;;;15.70;99.90;;;;;;5073048;28;20020;-58
2021/05/29 08:23:03;;;;;;;7.53;5.00;;;15.70;99.90;;;;;;5069294;28;20035;-58
2021/05/29 08:25:29;;;;;;;6.70;4.30;;;15.80;99.90;;;;;;5067535;28;20521;-59
2021/05/29 08:27:54;;;;;;;7.50;4.65;;;15.80;99.90;;;;;;5071110;28;20108;-60
2021/05/29 08:30:20;;;;;;;7.63;3.63;;;16.00;99.90;;;;;;5068824;28;20704;-57
2021/05/29 08:32:46;;;;;;;7.30;2.90;;;16.10;99.90;;;;;;5063226;28;20041;-59
2021/05/29 08:35:11;;;;;;;5.22;2.92;;;16.20;99.90;;;;;;5065296;28;20058;-57
2021/05/29 08:37:40;;;;;;;5.57;3.53;;;16.20;99.90;;;;;;5065590;28;20268;-54
2021/05/29 08:40:07;;;;;;;6.03;3.10;;;16.30;99.90;;;;;;5063804;28;20021;-56
2021/05/29 08:42:32;;;;;;;3.65;2.25;;;16.30;99.90;;;;;;5061874;28;20028;-57
2021/05/29 08:44:58;;;;;;;4.93;3.53;;;16.50;99.90;;;;;;5063778;28;20470;-57
2021/05/29 08:47:26;;;;;;;3.38;2.88;;;16.50;99.90;;;;;;5044292;28;20379;-57
2021/05/29 08:49:52;;;;;;;6.32;3.08;;;16.60;99.90;;;;;;5062874;28;20077;-60
2021/05/29 08:52:18;;;;;;;6.32;3.60;;;16.70;99.90;;;;;;5061505;28;20033;-56
2021/05/29 08:54:44;;;;;;;6.20;2.97;;;16.80;99.90;;;;;;5065254;28;20119;-58
2021/05/29 08:57:10;;;;;;;14.10;2.38;;;16.90;99.90;;;;;;5066016;28;20505;-57
2021/05/29 08:59:35;;;;;;;2.08;1.55;;;16.90;99.90;;;;;;5061116;28;20082;-56
2021/05/29 09:02:03;;;;;;;3.58;2.25;;;17.10;99.90;;;;;;5062428;28;20016;-57
2021/05/29 09:04:29;;;;;;;4.30;2.25;;;17.10;99.90;;;;;;5043986;28;20071;-59
2021/05/29 09:06:56;;;;;;;8.57;3.17;;;17.20;99.90;;;;;;5069136;28;20480;-59
2021/05/29 09:09:22;;;;;;;7.13;2.20;;;17.20;99.90;;;;;;5069245;28;20012;-57
2021/05/29 09:11:55;;;;;;;5.07;2.53;;;17.30;99.90;;;;;;5066749;28;20588;-58
2021/05/29 09:14:21;;;;;;;5.95;2.17;;;17.50;99.90;;;;;;5075516;28;20052;-60
2021/05/29 09:17:09;;;;;;;4.88;2.70;;;17.60;99.90;;;;;;5069605;28;20055;-60
2021/05/29 09:19:55;;;;;;;4.68;2.80;;;17.70;99.90;;;;;;5071148;28;20634;-58
2021/05/29 09:22:24;;;;;;;4.63;2.72;;;17.80;99.90;;;;;;5072606;28;20025;-60
2021/05/29 09:25:12;;;;;;;5.70;2.22;;;17.90;99.90;;;;;;5074193;28;20103;-58
2021/05/29 09:28:01;;;;;;;8.73;2.22;;;18.00;99.90;;;;;;5078036;28;20125;-59
2021/05/29 09:30:51;;;;;;;19.52;2.55;;;18.20;99.90;;;;;;5078033;28;20036;-59
2021/05/29 09:35:57;;;;;;;18.27;3.63;;;18.20;99.90;;;;;;5086009;22;20061;-59
2021/05/29 09:38:42;;;;;;;6.65;2.97;;;18.30;99.90;;;;;;5064637;28;20082;-61
2021/05/29 09:41:43;;;;;;;6.43;2.55;;;18.40;99.90;;;;;;5066599;28;20048;-60
2021/05/29 09:44:11;;;;;;;8.75;3.35;;;18.50;99.90;;;;;;4964461;28;20023;-59
2021/05/29 09:46:57;;;;;;;15.73;3.08;;;18.40;99.90;;;;;;5050883;28;20029;-60
2021/05/29 09:49:43;;;;;;;4.80;2.38;;;18.70;99.90;;;;;;5070980;28;20035;-60
2021/05/29 09:52:21;;;;;;;7.38;2.50;;;18.90;99.90;;;;;;5047963;28;20545;-59
2021/05/29 09:54:54;;;;;;;6.40;2.25;;;19.10;99.90;;;;;;5066507;28;20032;-60
2021/05/29 09:57:20;;;;;;;5.47;2.78;;;18.80;99.90;;;;;;5062671;28;20487;-60
2021/05/29 09:59:54;;;;;;;8.18;2.70;;;18.50;99.90;;;;;;5066537;28;20082;-60
2021/05/29 10:02:20;;;;;;;;;;;18.20;99.90;;;;;;5063843;28;20021;-60
2021/05/29 10:04:52;;;;;;;6.43;3.10;;;18.10;99.90;;;;;;5068692;28;19923;-61
2021/05/29 10:07:17;;;;;;;5.25;2.72;;;18.20;99.90;;;;;;5060903;28;20039;-60
2021/05/29 10:09:43;;;;;;;8.43;3.35;;;18.70;99.90;;;;;;5071094;28;20103;-59
2021/05/29 10:12:10;;;;;;;8.00;2.45;;;19.30;99.90;;;;;;5070419;28;20028;-60
2021/05/29 10:14:36;;;;;;;1.63;1.50;;;19.70;99.90;;;;;;5066101;28;20017;-61
2021/05/29 10:17:05;;;;;;;5.18;1.95;;;19.80;99.90;;;;;;5064146;28;20056;-62
2021/05/29 10:19:31;;;;;;;5.45;2.35;;;19.40;99.90;;;;;;5060555;28;20059;-61
2021/05/29 10:22:02;;;;;;;4.38;2.10;;;19.20;99.90;;;;;;5070021;28;20024;-61
2021/05/29 10:24:27;;;;;;;4.05;1.83;;;19.30;99.90;;;;;;5069857;28;20100;-61
2021/05/29 10:26:54;;;;;;;7.10;2.35;;;19.50;99.90;;;;;;5070908;28;20124;-60
2021/05/29 10:29:27;;;;;;;4.97;2.20;;;19.70;99.90;;;;;;5069514;28;20035;-59
2021/05/29 10:32:12;;;;;;;5.82;2.00;;;20.10;99.90;;;;;;5070118;28;20024;-61
2021/05/29 10:34:54;;;;;;;;;;;20.60;99.90;;;;;;5068583;28;20587;-61
2021/05/29 10:37:36;;;;;;;2.60;1.77;;;20.80;99.90;;;;;;5068542;28;19974;-61
2021/05/29 10:40:30;;;;;;;6.18;2.10;;;20.90;99.90;;;;;;5064922;28;20501;-60
2021/05/29 10:43:11;;;;;;;2.55;1.70;;;20.90;99.90;;;;;;5054620;28;20163;-61
2021/05/29 10:45:57;;;;;;;4.55;1.75;;;20.50;99.90;;;;;;5069756;28;20124;-60
2021/05/29 10:48:24;;;;;;;3.28;1.80;;;20.30;99.90;;;;;;5059833;28;20040;-60
2021/05/29 10:50:57;;;;;;;3.97;1.90;;;20.80;99.90;;;;;;5070857;28;20085;-60
2021/05/29 10:53:42;;;;;;;8.30;2.42;;;20.90;99.90;;;;;;5061381;28;20032;-61
2021/05/29 10:56:19;;;;;;;5.20;2.20;;;20.90;99.90;;;;;;5063790;28;20028;-59
2021/05/29 10:58:54;;;;;;;5.65;2.13;;;20.90;99.90;;;;;;5063651;28;20119;-59
2021/05/29 11:01:44;;;;;;;6.00;2.30;;;21.10;99.90;;;;;;5059737;28;20024;-57
2021/05/29 11:04:16;;;;;;;3.30;1.83;;;21.00;99.90;;;;;;5064585;28;20033;-59
2021/05/29 11:06:49;;;;;;;2.05;1.73;;;21.30;99.90;;;;;;5061514;28;20028;-59
2021/05/29 11:09:17;;;;;;;4.33;2.37;;;21.60;99.90;;;;;;5060043;28;20481;-59
2021/05/29 11:14:19;;;;;;;3.60;1.75;;;21.80;99.90;;;;;;5063434;28;20032;-59
2021/05/29 11:16:54;;;;;;;6.93;2.73;;;22.10;99.00;;;;;;5058136;28;20032;-61
2021/05/29 11:19:22;;;;;;;3.35;2.22;;;22.00;98.00;;;;;;5064170;28;20036;-60
2021/05/29 11:22:04;;;;;;;6.75;2.38;;;21.30;99.00;;;;;;5055694;28;20040;-60
2021/05/29 11:24:33;;;;;;;6.53;2.30;;;20.40;99.90;;;;;;5066399;28;20029;-59
2021/05/29 11:27:00;;;;;;;5.03;2.30;;;20.00;99.90;;;;;;5059890;28;20028;-58
2021/05/29 11:29:26;;;;;;;4.03;2.03;;;19.90;99.90;;;;;;5061896;28;20060;-57
2021/05/29 11:31:53;;;;;;;5.57;2.30;;;20.40;99.90;;;;;;5059886;28;20106;-59
2021/05/29 11:34:19;;;;;;;3.80;2.40;;;20.80;99.70;;;;;;5060617;28;20507;-60
2021/05/29 11:36:45;;;;;;;4.68;2.42;;;21.10;99.90;;;;;;5061220;28;20029;-59
2021/05/29 11:39:21;;;;;;;3.70;1.80;;;21.30;97.30;;;;;;5064317;28;20064;-60
2021/05/29 11:41:46;;;;;;;6.28;2.60;;;21.60;96.40;;;;;;5062954;28;20032;-60
2021/05/29 11:44:23;;;;;;;4.22;3.00;;;21.40;96.40;;;;;;5057297;28;20037;-60
2021/05/29 11:46:49;;;;;;;12.48;2.88;;;21.60;97.90;;;;;;5059564;28;20063;-60
2021/05/29 11:49:15;;;;;;;5.43;3.22;;;21.80;97.00;;;;;;5064490;28;20052;-59
2021/05/29 11:51:42;;;;;;;6.82;2.67;;;21.80;97.10;;;;;;5041589;28;20044;-60
2021/05/29 11:54:10;;;;;;;5.15;2.55;;;21.40;97.00;;;;;;5060887;28;20529;-59
2021/05/29 11:56:38;;;;;;;4.22;2.33;;;20.90;97.60;;;;;;5056817;28;20036;-60
2021/05/29 11:59:06;;;;;;;4.28;3.10;;;20.60;98.20;;;;;;5057622;28;20033;-59
2021/05/29 12:01:34;;;;;;;3.03;2.17;;;20.90;97.70;;;;;;5057951;28;20020;-60
2021/05/29 12:04:01;;;;;;;3.97;2.20;;;21.40;95.90;;;;;;5062258;28;20025;-61
2021/05/29 12:06:39;;;;;;;3.63;2.40;;;21.70;94.90;;;;;;5042837;28;20025;-60
2021/05/29 12:09:08;;;;;;;12.48;2.83;;;22.00;94.60;;;;;;5059763;28;20432;-59
2021/05/29 12:11:36;;;;;;;4.35;2.53;;;22.10;93.90;;;;;;5061827;28;20056;-58
2021/05/29 12:14:15;;;;;;;6.40;2.80;;;22.30;93.60;;;;;;5058378;28;20028;-59
2021/05/29 12:16:55;;;;;;;4.68;2.50;;;21.60;93.80;;;;;;5058734;28;20032;-60
2021/05/29 12:19:43;;;;;;;483.08;39.53;;;21.00;97.40;;;;;;5057378;28;20611;-59
2021/05/29 12:22:18;;;;;;;5.30;2.83;;;20.70;97.50;;;;;;5059728;28;20108;-58
2021/05/29 12:24:52;;;;;;;5.50;2.97;;;20.70;96.70;;;;;;5053590;28;20115;-61
2021/05/29 12:27:23;;;;;;;6.35;2.60;;;21.10;95.30;;;;;;5055302;28;20021;-59
2021/05/29 12:29:55;;;;;;;6.28;2.72;;;21.70;94.80;;;;;;5053728;28;20036;-60
2021/05/29 12:32:28;;;;;;;7.97;3.50;;;22.10;94.00;;;;;;5058631;28;20440;-58
2021/05/29 12:34:53;;;;;;;4.25;3.10;;;22.40;93.60;;;;;;5054718;28;20036;-59
2021/05/29 12:37:31;;;;;;;7.72;2.90;;;22.50;90.90;;;;;;5052926;28;20099;-59
2021/05/29 12:40:11;;;;;;;6.40;3.35;;;22.60;91.70;;;;;;5063127;28;20032;-59
2021/05/29 12:42:44;;;;;;;9.40;4.18;;;22.50;92.70;;;;;;5062540;28;20316;-60
2021/05/29 12:45:23;;;;;;;5.20;3.85;;;22.00;93.80;;;;;;5062039;28;20115;-59
2021/05/29 12:48:05;;;;;;;4.50;4.05;;;21.80;94.30;;;;;;5058212;28;20529;-59
2021/05/29 12:50:38;;;;;;;5.55;3.03;;;22.00;92.80;;;;;;5064428;28;20036;-60
2021/05/29 12:53:08;;;;;;;6.55;3.53;;;22.30;93.30;;;;;;5042650;28;20135;-59
2021/05/29 12:55:34;;;;;;;4.70;3.67;;;22.70;92.00;;;;;;5063016;28;20032;-59
2021/05/29 12:58:15;;;;;;;6.57;3.38;;;22.60;92.00;;;;;;5056820;28;20048;-59
2021/05/29 13:09:06;;;;;;;8.05;4.78;;;22.70;91.90;;;;;;5060619;28;20048;-61
2021/05/29 13:11:34;;;;;;;11.35;5.03;;;22.80;92.80;;;;;;5061812;28;20074;-59
2021/05/29 13:14:02;;;;;;;8.45;5.55;;;23.10;91.90;;;;;;5058544;28;20040;-60